createdAt,value
2022-11-10T00:02:31.155Z,70.38
2022-11-10T00:05:38.809Z,77.93
2022-11-10T00:08:46.883Z,70.80
2022-11-10T00:11:54.874Z,66.30
2022-11-10T00:15:25.107Z,60.05
2022-11-10T00:18:32.808Z,57.22
2022-11-10T00:21:40.933Z,64.47
2022-11-10T00:24:41.088Z,63.83
2022-11-10T00:27:48.859Z,64.15
2022-11-10T00:30:49.041Z,66.68
2022-11-10T00:33:57.874Z,65.78
2022-11-10T00:37:05.906Z,61.55
2022-11-10T00:40:13.504Z,65.35
2022-11-10T00:43:14.880Z,59.17
2022-11-10T00:46:22.772Z,50.72
2022-11-10T00:49:24.287Z,42.55
2022-11-10T00:52:30.951Z,41.45
2022-11-10T00:55:31.135Z,36.55
2022-11-10T00:58:37.875Z,34.60
2022-11-10T01:01:46.158Z,34.65
2022-11-10T01:04:52.882Z,34.78
2022-11-10T01:07:59.831Z,37.10
2022-11-10T01:11:25.775Z,37.35
2022-11-10T01:14:32.883Z,38.53
2022-11-10T01:17:40.871Z,47.72
2022-11-10T01:20:50.880Z,43.15
2022-11-10T01:23:52.195Z,43.92
2022-11-10T01:26:59.779Z,40.28
2022-11-10T01:30:06.922Z,40.33
2022-11-10T01:33:07.119Z,39.50
2022-11-10T01:36:14.873Z,42.80
2022-11-10T01:39:28.718Z,34.15
2022-11-10T01:42:57.866Z,38.85
2022-11-10T01:46:23.829Z,38.72
2022-11-10T01:49:27.333Z,36.38
2022-11-10T01:52:34.133Z,41.55
2022-11-10T01:55:35.883Z,42.20
2022-11-10T01:58:48.862Z,45.92
2022-11-10T02:01:50.328Z,46.75
2022-11-10T02:04:57.830Z,38.38
2022-11-10T02:08:04.815Z,41.63
2022-11-10T02:11:05.155Z,46.50
2022-11-10T02:14:12.882Z,49.88
2022-11-10T02:17:13.128Z,56.28
2022-11-10T02:20:23.860Z,52.83
2022-11-10T02:23:46.842Z,62.15
2022-11-10T02:26:56.089Z,55.20
2022-11-10T02:30:02.770Z,57.80
2022-11-10T02:33:11.857Z,48.67
2022-11-10T02:36:13.190Z,53.75
2022-11-10T02:39:19.814Z,53.83
2022-11-10T02:42:20.152Z,50.13
2022-11-10T02:45:27.868Z,60.85
2022-11-10T02:48:29.113Z,48.03
2022-11-10T02:51:35.839Z,56.05
2022-11-10T02:54:37.119Z,59.80
2022-11-10T02:57:45.841Z,62.35
2022-11-10T03:00:52.857Z,59.90
2022-11-10T03:03:54.105Z,67.45
2022-11-10T03:07:00.814Z,72.93
2022-11-10T03:10:01.030Z,68.10
2022-11-10T03:13:12.856Z,57.45
2022-11-10T03:16:19.824Z,64.40
2022-11-10T03:19:20.125Z,75.25
2022-11-10T03:22:27.839Z,71.47
2022-11-10T03:25:34.818Z,79.30
2022-11-10T03:28:35.875Z,169.15
2022-11-10T03:31:43.745Z,94.78
2022-11-10T03:34:44.015Z,94.43
2022-11-10T03:37:50.818Z,93.05
2022-11-10T03:44:20.827Z,74.93
2022-11-10T03:47:27.829Z,62.85
2022-11-10T03:50:28.101Z,42.13
2022-11-10T03:53:35.848Z,53.65
2022-11-10T03:56:36.130Z,49.65
2022-11-10T03:59:44.051Z,44.80
2022-11-10T04:02:45.117Z,42.92
2022-11-10T04:06:09.846Z,42.88
2022-11-10T04:09:11.131Z,43.00
2022-11-10T04:12:35.857Z,57.50
2022-11-10T04:15:45.478Z,42.13
2022-11-10T04:18:52.842Z,41.45
2022-11-10T04:22:00.835Z,33.03
2022-11-10T04:25:01.178Z,34.80
2022-11-10T04:28:07.826Z,31.98
2022-11-10T04:31:10.189Z,31.08
2022-11-10T04:34:17.832Z,26.42
2022-11-10T04:37:19.123Z,28.67
2022-11-10T04:40:27.131Z,28.83
2022-11-10T04:43:34.824Z,28.98
2022-11-10T04:46:51.825Z,33.63
2022-11-10T04:49:52.681Z,25.45
2022-11-10T04:52:59.846Z,34.65
2022-11-10T04:56:07.858Z,24.55
2022-11-10T04:59:08.269Z,28.63
2022-11-10T05:02:14.828Z,25.48
2022-11-10T05:05:22.830Z,24.10
2022-11-10T05:08:23.997Z,22.98
2022-11-10T05:11:31.841Z,26.40
2022-11-10T05:14:33.046Z,25.75
2022-11-10T05:17:39.747Z,27.67
2022-11-10T05:20:40.225Z,23.00
2022-11-10T05:23:46.847Z,25.75
2022-11-10T05:26:47.456Z,29.02
2022-11-10T05:29:53.848Z,23.35
2022-11-10T05:32:54.177Z,21.65
2022-11-10T05:36:03.856Z,23.38
2022-11-10T05:39:16.731Z,26.20
2022-11-10T05:42:23.847Z,22.88
2022-11-10T05:45:24.149Z,19.65
2022-11-10T05:48:31.133Z,18.73
2022-11-10T05:51:32.186Z,25.60
2022-11-10T05:54:38.725Z,19.90
2022-11-10T05:57:39.175Z,21.05
2022-11-10T06:00:45.747Z,27.20
2022-11-10T06:03:46.170Z,26.25
2022-11-10T06:06:52.800Z,30.50
2022-11-10T06:10:00.871Z,26.70
2022-11-10T06:13:01.364Z,30.83
2022-11-10T06:16:07.839Z,32.65
2022-11-10T06:19:09.026Z,28.73
2022-11-10T06:22:15.827Z,32.83
2022-11-10T06:25:23.910Z,38.03
2022-11-10T06:28:24.259Z,33.13
2022-11-10T06:31:31.831Z,30.13
2022-11-10T06:34:32.119Z,25.13
2022-11-10T06:37:39.731Z,29.65
2022-11-10T06:40:52.801Z,29.40
2022-11-10T06:43:53.012Z,35.47
2022-11-10T06:46:59.737Z,31.33
2022-11-10T06:50:00.982Z,27.83
2022-11-10T06:53:11.725Z,33.95
2022-11-10T06:56:11.992Z,32.80
2022-11-10T06:59:19.800Z,31.40
2022-11-10T07:02:21.033Z,27.73
2022-11-10T07:05:28.804Z,26.20
2022-11-10T07:08:36.740Z,26.90
2022-11-10T07:11:38.276Z,29.63
2022-11-10T07:14:45.729Z,33.03
2022-11-10T07:17:56.898Z,25.02
2022-11-10T07:20:57.990Z,28.98
2022-11-10T07:24:04.739Z,22.02
2022-11-10T07:27:05.077Z,23.35
2022-11-10T07:30:11.817Z,21.60
2022-11-10T07:33:15.803Z,19.85
2022-11-10T07:36:22.837Z,27.95
2022-11-10T07:39:23.064Z,22.75
2022-11-10T07:42:30.826Z,18.33
2022-11-10T07:45:39.872Z,28.25
2022-11-10T07:48:40.103Z,22.80
2022-11-10T07:51:46.803Z,18.48
2022-11-10T07:54:47.078Z,19.85
2022-11-10T07:57:54.801Z,22.67
2022-11-10T08:00:56.108Z,15.63
2022-11-10T08:04:02.819Z,19.85
2022-11-10T08:07:03.353Z,23.60
2022-11-10T08:10:09.808Z,18.23
2022-11-10T08:13:22.093Z,24.27
2022-11-10T08:16:22.133Z,19.77
2022-11-10T08:19:29.907Z,22.63
2022-11-10T08:22:31.030Z,18.42
2022-11-10T08:25:37.842Z,18.23
2022-11-10T08:28:38.001Z,15.80
2022-11-10T08:31:47.829Z,21.27
2022-11-10T08:34:49.037Z,20.77
2022-11-10T08:37:55.806Z,23.38
2022-11-10T08:41:05.083Z,18.73
2022-11-10T08:44:08.106Z,23.25
2022-11-10T08:47:11.053Z,15.63
2022-11-10T08:50:18.871Z,18.15
2022-11-10T08:53:25.638Z,22.17
2022-11-10T08:56:33.823Z,22.55
2022-11-10T08:59:40.758Z,18.48
2022-11-10T09:02:48.814Z,25.00
2022-11-10T09:05:58.569Z,20.50
2022-11-10T09:09:05.809Z,22.98
2022-11-10T09:12:13.803Z,21.15
2022-11-10T09:15:16.171Z,23.17
2022-11-10T09:18:24.744Z,23.70
2022-11-10T09:21:32.852Z,21.85
2022-11-10T09:24:39.880Z,23.13
2022-11-10T09:27:50.758Z,21.25
2022-11-10T09:30:53.076Z,22.25
2022-11-10T09:33:59.889Z,18.60
2022-11-10T09:37:01.055Z,21.70
2022-11-10T09:40:12.747Z,23.38
2022-11-10T09:43:21.708Z,25.00
2022-11-10T09:46:57.801Z,23.67
2022-11-10T09:50:09.765Z,29.60
2022-11-10T09:53:17.855Z,18.80
2022-11-10T09:56:40.815Z,20.58
2022-11-10T09:59:43.090Z,26.52
2022-11-10T10:02:56.755Z,19.63
2022-11-10T10:06:24.843Z,16.60
2022-11-10T10:09:44.599Z,19.10
2022-11-10T10:13:17.024Z,23.98
2022-11-10T10:16:39.798Z,25.10
2022-11-10T10:20:10.943Z,35.80
2022-11-10T10:23:54.369Z,29.98
2022-11-10T10:27:07.769Z,28.85
2022-11-10T10:33:31.780Z,30.15
2022-11-10T10:36:32.987Z,37.80
2022-11-10T10:39:58.858Z,33.50
2022-11-10T10:43:00.806Z,26.52
2022-11-10T10:46:39.822Z,27.98
2022-11-10T10:49:41.072Z,32.67
2022-11-10T10:52:47.858Z,32.85
2022-11-10T10:55:56.598Z,34.78
2022-11-10T10:59:14.102Z,35.55
2022-11-10T11:02:28.732Z,34.60
2022-11-10T11:05:35.737Z,27.42
2022-11-10T11:08:37.216Z,35.60
2022-11-10T11:11:47.801Z,35.50
2022-11-10T11:14:48.282Z,32.90
2022-11-10T11:18:07.713Z,50.03
2022-11-10T11:21:07.936Z,43.63
2022-11-10T11:24:25.809Z,41.40
2022-11-10T11:27:50.762Z,48.25
2022-11-10T11:31:17.716Z,40.75
2022-11-10T11:34:30.783Z,44.05
2022-11-10T11:38:12.729Z,53.50
2022-11-10T11:41:45.867Z,36.22
2022-11-10T11:44:56.130Z,46.35
2022-11-10T11:48:49.789Z,46.42
2022-11-10T11:52:27.150Z,34.78
2022-11-10T11:55:42.721Z,33.25
2022-11-10T11:59:21.979Z,32.60
2022-11-10T12:02:45.583Z,42.47
2022-11-10T12:05:54.060Z,46.92
2022-11-10T12:09:19.789Z,44.63
2022-11-10T12:12:35.801Z,30.50
2022-11-10T12:15:50.396Z,38.08
2022-11-10T12:19:08.743Z,39.05
2022-11-10T12:22:38.808Z,43.05
2022-11-10T12:26:12.257Z,45.58
2022-11-10T12:29:35.806Z,52.28
2022-11-10T12:37:01.796Z,52.25
2022-11-10T12:40:31.755Z,49.28
2022-11-10T12:43:35.617Z,56.08
2022-11-10T12:46:45.974Z,50.75
2022-11-10T12:50:15.196Z,42.90
2022-11-10T12:53:42.824Z,50.42
2022-11-10T12:57:07.744Z,40.50
2022-11-10T13:03:47.789Z,49.08
2022-11-10T13:06:58.206Z,48.42
2022-11-10T13:10:34.782Z,69.03
2022-11-10T13:13:44.735Z,53.50
2022-11-10T13:16:52.767Z,52.33
2022-11-10T13:20:09.597Z,66.15
2022-11-10T13:23:41.055Z,59.08
2022-11-10T13:26:47.247Z,57.38
2022-11-10T13:29:54.773Z,72.03
2022-11-10T13:32:55.214Z,69.95
2022-11-10T13:36:06.027Z,66.10
2022-11-10T13:39:30.798Z,61.25
2022-11-10T13:42:40.021Z,64.70
2022-11-10T13:45:51.793Z,56.58
2022-11-10T13:49:25.765Z,56.25
2022-11-10T13:52:40.772Z,69.43
2022-11-10T13:56:06.791Z,62.85
2022-11-10T13:59:13.831Z,53.72
2022-11-10T14:02:35.295Z,66.07
2022-11-10T14:05:49.804Z,64.80
2022-11-10T14:09:13.405Z,54.53
2022-11-10T14:12:49.153Z,62.00
2022-11-10T14:15:51.227Z,55.40
2022-11-10T14:19:31.776Z,54.55
2022-11-10T14:22:39.373Z,56.45
2022-11-10T14:25:57.728Z,57.35
2022-11-10T14:28:58.951Z,48.78
2022-11-10T14:32:05.721Z,51.33
2022-11-10T14:35:18.326Z,55.78
2022-11-10T14:38:57.776Z,53.28
2022-11-10T14:42:15.727Z,54.75
2022-11-10T14:45:24.787Z,57.53
2022-11-10T14:48:31.138Z,45.50
2022-11-10T14:51:38.791Z,50.53
2022-11-10T14:54:39.668Z,48.72
2022-11-10T14:57:48.791Z,47.67
2022-11-10T15:00:58.775Z,58.58
2022-11-10T15:04:05.800Z,53.13
2022-11-10T15:07:08.147Z,45.35
2022-11-10T15:10:25.030Z,47.53
2022-11-10T15:13:45.046Z,48.30
2022-11-10T15:17:08.760Z,44.03
2022-11-10T15:20:12.539Z,51.83
2022-11-10T15:23:46.713Z,47.00
2022-11-10T15:26:49.111Z,51.95
2022-11-10T15:29:56.790Z,52.78
2022-11-10T15:33:02.004Z,53.55
2022-11-10T15:36:37.788Z,68.10
2022-11-10T15:39:38.097Z,51.17
2022-11-10T15:42:45.906Z,51.65
2022-11-10T15:45:47.192Z,63.05
2022-11-10T15:48:57.774Z,55.67
2022-11-10T15:52:00.054Z,53.92
2022-11-10T15:55:06.772Z,57.03
2022-11-10T15:58:07.096Z,43.97
2022-11-10T16:01:13.801Z,50.60
2022-11-10T16:04:24.772Z,53.88
2022-11-10T16:07:25.974Z,64.63
2022-11-10T16:10:35.768Z,51.50
2022-11-10T16:13:43.761Z,50.33
2022-11-10T16:16:45.192Z,52.97
2022-11-10T16:19:51.764Z,53.20
2022-11-10T16:22:58.795Z,47.38
2022-11-10T16:26:05.772Z,60.83
2022-11-10T16:29:06.066Z,55.15
2022-11-10T16:32:13.705Z,65.05
2022-11-10T16:35:25.762Z,47.60
2022-11-10T16:38:38.769Z,54.38
2022-11-10T16:41:46.786Z,56.40
2022-11-10T16:44:48.131Z,50.60
2022-11-10T16:47:54.796Z,53.50
2022-11-10T16:51:03.738Z,61.72
2022-11-10T16:54:11.715Z,47.83
2022-11-10T16:57:16.857Z,59.33
2022-11-10T17:00:24.795Z,52.53
2022-11-10T17:03:33.811Z,47.40
2022-11-10T17:06:43.883Z,45.47
2022-11-10T17:09:44.319Z,48.70
2022-11-10T17:12:51.710Z,53.67
2022-11-10T17:16:09.711Z,54.33
2022-11-10T17:19:19.790Z,50.58
2022-11-10T17:22:22.513Z,56.03
2022-11-10T17:25:40.770Z,43.77
2022-11-10T17:28:47.795Z,61.17
2022-11-10T17:31:54.744Z,43.67
2022-11-10T17:34:55.073Z,41.73
2022-11-10T17:38:08.699Z,53.10
2022-11-10T17:44:29.732Z,53.42
2022-11-10T17:47:38.755Z,52.80
2022-11-10T17:50:40.228Z,43.40
2022-11-10T17:53:47.786Z,41.70
2022-11-10T17:56:49.220Z,46.38
2022-11-10T17:59:55.776Z,42.88
2022-11-10T18:03:02.774Z,44.90
2022-11-10T18:06:07.615Z,48.67
2022-11-10T18:09:15.767Z,40.33
2022-11-10T18:12:16.101Z,41.47
2022-11-10T18:15:27.770Z,42.88
2022-11-10T18:18:34.774Z,45.53
2022-11-10T18:21:35.118Z,44.33
2022-11-10T18:24:42.766Z,41.58
2022-11-10T18:27:45.195Z,51.03
2022-11-10T18:30:52.780Z,49.35
2022-11-10T18:33:59.698Z,55.33
2022-11-10T18:37:00.128Z,47.78
2022-11-10T18:40:06.758Z,42.17
2022-11-10T18:43:21.957Z,38.65
2022-11-10T18:46:23.036Z,39.78
2022-11-10T18:49:31.754Z,52.20
2022-11-10T18:52:32.204Z,47.05
2022-11-10T18:55:44.317Z,50.83
2022-11-10T18:58:57.775Z,50.92
2022-11-10T19:02:04.830Z,45.45
2022-11-10T19:05:05.474Z,43.35
2022-11-10T19:08:15.744Z,42.95
2022-11-10T19:11:21.069Z,39.78
2022-11-10T19:14:28.754Z,46.63
2022-11-10T19:17:29.097Z,40.42
2022-11-10T19:20:35.744Z,41.72
2022-11-10T19:23:36.346Z,46.80
2022-11-10T19:26:44.750Z,44.40
2022-11-10T19:29:45.425Z,41.55
2022-11-10T19:32:53.681Z,49.13
2022-11-10T19:36:01.800Z,53.70
2022-11-10T19:39:03.224Z,38.17
2022-11-10T19:42:10.789Z,46.20
2022-11-10T19:45:12.749Z,52.45
2022-11-10T19:48:20.731Z,46.78
2022-11-10T19:51:30.658Z,50.85
2022-11-10T19:54:37.654Z,52.60
2022-11-10T19:57:45.746Z,55.15
2022-11-10T20:00:49.880Z,49.33
2022-11-10T20:03:57.653Z,50.95
2022-11-10T20:07:16.425Z,52.53
2022-11-10T20:10:24.776Z,42.72
2022-11-10T20:13:27.717Z,46.53
2022-11-10T20:16:34.656Z,47.10
2022-11-10T20:19:41.191Z,54.72
2022-11-10T20:22:48.737Z,54.92
2022-11-10T20:25:49.912Z,51.85
2022-11-10T20:28:57.802Z,45.90
2022-11-10T20:31:57.950Z,54.33
2022-11-10T20:35:04.827Z,46.75
2022-11-10T20:38:04.897Z,48.72
2022-11-10T20:41:20.665Z,46.05
2022-11-10T20:44:21.927Z,44.28
2022-11-10T20:47:29.819Z,41.00
2022-11-10T20:50:29.933Z,46.75
2022-11-10T20:53:37.761Z,47.30
2022-11-10T20:56:38.089Z,45.80
2022-11-10T20:59:44.747Z,43.08
2022-11-10T21:02:44.984Z,43.40
2022-11-10T21:05:51.737Z,41.85
2022-11-10T21:08:52.033Z,43.67
2022-11-10T21:12:16.629Z,42.80
2022-11-10T21:15:17.802Z,43.17
2022-11-10T21:18:25.656Z,43.25
2022-11-10T21:21:35.102Z,44.20
2022-11-10T21:24:42.730Z,40.53
2022-11-10T21:27:50.764Z,46.63
2022-11-10T21:30:52.035Z,41.55
2022-11-10T21:34:02.646Z,39.30
2022-11-10T21:37:03.018Z,40.80
2022-11-10T21:40:09.647Z,43.83
2022-11-10T21:43:17.014Z,48.33
2022-11-10T21:46:17.846Z,55.28
2022-11-10T21:49:24.631Z,50.08
2022-11-10T21:52:31.745Z,52.40
2022-11-10T21:55:32.049Z,57.90
2022-11-10T21:58:39.719Z,59.83
2022-11-10T22:01:46.723Z,62.20
2022-11-10T22:04:53.642Z,64.35
2022-11-10T22:07:54.154Z,57.75
2022-11-10T22:11:18.782Z,57.92
2022-11-10T22:14:37.056Z,59.08
2022-11-10T22:18:01.633Z,57.47
2022-11-10T22:21:03.567Z,49.97
2022-11-10T22:24:28.611Z,46.40
2022-11-10T22:27:29.914Z,49.33
2022-11-10T22:30:36.635Z,50.65
2022-11-10T22:33:48.738Z,45.72
2022-11-10T22:36:50.417Z,50.42
2022-11-10T22:40:15.646Z,42.53
2022-11-10T22:43:40.386Z,41.35
2022-11-10T22:46:48.739Z,43.75
2022-11-10T22:49:55.630Z,41.83
2022-11-10T22:53:02.682Z,42.92
2022-11-10T22:56:02.934Z,34.38
2022-11-10T22:59:09.648Z,40.65
2022-11-10T23:02:16.738Z,38.70
2022-11-10T23:05:18.016Z,39.15
2022-11-10T23:08:24.741Z,40.83
2022-11-10T23:11:34.010Z,42.05
2022-11-10T23:14:40.645Z,43.72
2022-11-10T23:17:42.012Z,44.85
2022-11-10T23:20:48.647Z,46.25
2022-11-10T23:23:51.258Z,37.28
2022-11-10T23:26:58.649Z,34.58
2022-11-10T23:29:58.974Z,38.38
2022-11-10T23:33:05.659Z,37.28
2022-11-10T23:36:13.690Z,30.45
2022-11-10T23:39:21.631Z,35.65
2022-11-10T23:42:34.692Z,35.05
2022-11-10T23:46:05.337Z,35.72
2022-11-10T23:49:10.623Z,33.33
2022-11-10T23:52:10.906Z,30.75
2022-11-10T23:55:18.720Z,39.35
2022-11-10T23:58:19.885Z,34.00
